createdAt,value
2023-04-17T00:04:07.756Z,64.50
2023-04-17T00:09:07.413Z,66.40
2023-04-17T00:14:07.378Z,64.60
2023-04-17T00:19:07.350Z,66.00
2023-04-17T00:24:07.310Z,60.60
2023-04-17T00:29:07.237Z,59.50
2023-04-17T00:34:07.178Z,53.30
2023-04-17T00:39:07.154Z,65.00
2023-04-17T00:44:07.058Z,61.20
2023-04-17T00:49:07.028Z,55.40
2023-04-17T00:54:07.028Z,64.60
2023-04-17T00:59:06.911Z,57.50
2023-04-17T01:04:07.031Z,57.20
2023-04-17T01:09:06.875Z,58.10
2023-04-17T01:14:06.803Z,57.00
2023-04-17T01:19:06.750Z,52.40
2023-04-17T01:24:06.681Z,56.80
2023-04-17T01:29:06.565Z,59.60
2023-04-17T01:34:06.540Z,60.20
2023-04-17T01:39:06.499Z,60.60
2023-04-17T01:44:06.458Z,54.50
2023-04-17T01:49:06.371Z,55.00
2023-04-17T01:54:06.339Z,58.90
2023-04-17T01:59:06.283Z,61.20
2023-04-17T02:04:06.310Z,50.20
2023-04-17T02:09:06.186Z,54.70
2023-04-17T02:14:06.162Z,52.20
2023-04-17T02:19:06.036Z,48.80
2023-04-17T02:24:06.031Z,48.90
2023-04-17T02:29:05.981Z,51.80
2023-04-17T02:34:05.951Z,47.40
2023-04-17T02:39:05.919Z,45.40
2023-04-17T02:44:05.739Z,47.10
2023-04-17T02:49:05.684Z,46.10
2023-04-17T02:54:05.719Z,44.20
2023-04-17T02:59:05.669Z,42.90
2023-04-17T03:04:05.738Z,43.20
2023-04-17T03:09:05.485Z,43.70
2023-04-17T03:14:05.438Z,43.50
2023-04-17T03:19:05.358Z,46.10
2023-04-17T03:24:05.317Z,41.10
2023-04-17T03:29:05.264Z,44.00
2023-04-17T03:34:05.226Z,41.10
2023-04-17T03:39:05.177Z,43.40
2023-04-17T03:44:05.125Z,42.10
2023-04-17T03:49:05.048Z,40.40
2023-04-17T03:54:04.981Z,43.70
2023-04-17T03:59:04.953Z,42.10
2023-04-17T04:04:05.220Z,47.00
2023-04-17T04:09:04.829Z,46.70
2023-04-17T04:14:04.752Z,47.80
2023-04-17T04:19:04.706Z,46.10
2023-04-17T04:24:04.610Z,47.10
2023-04-17T04:29:04.658Z,46.80
2023-04-17T04:34:13.405Z,45.90
2023-04-17T04:39:04.473Z,46.10
2023-04-17T04:44:04.510Z,47.00
2023-04-17T04:49:04.468Z,49.60
2023-04-17T04:54:04.315Z,46.20
2023-04-17T04:59:04.298Z,50.00
2023-04-17T05:04:04.527Z,46.70
2023-04-17T05:09:04.285Z,50.00
2023-04-17T05:14:05.257Z,46.20
2023-04-17T05:19:04.432Z,47.40
2023-04-17T05:24:04.052Z,45.80
2023-04-17T05:29:04.039Z,46.20
2023-04-17T05:34:04.984Z,46.70
2023-04-17T05:39:04.020Z,44.70
2023-04-17T05:44:03.907Z,44.90
2023-04-17T05:49:03.847Z,47.40
2023-04-17T05:54:03.836Z,45.70
2023-04-17T05:59:03.734Z,43.70
2023-04-17T06:04:04.003Z,43.30
2023-04-17T06:09:03.613Z,43.60
2023-04-17T06:14:03.470Z,48.50
2023-04-17T06:19:03.476Z,42.80
2023-04-17T06:24:03.449Z,42.30
2023-04-17T06:29:03.399Z,43.80
2023-04-17T06:34:03.408Z,43.80
2023-04-17T06:39:03.278Z,43.60
2023-04-17T06:44:03.248Z,42.30
2023-04-17T06:49:03.252Z,40.20
2023-04-17T06:54:03.112Z,44.50
2023-04-17T06:59:03.289Z,40.70
2023-04-17T07:04:03.161Z,42.20
2023-04-17T07:09:03.063Z,43.10
2023-04-17T07:14:02.865Z,38.60
2023-04-17T07:19:02.823Z,45.20
2023-04-17T07:24:02.870Z,49.90
2023-04-17T07:29:02.688Z,46.20
2023-04-17T07:34:02.612Z,43.30
2023-04-17T07:39:02.662Z,43.10
2023-04-17T07:44:02.534Z,44.40
2023-04-17T07:49:02.495Z,44.90
2023-04-17T07:54:02.434Z,44.10
2023-04-17T07:59:02.521Z,45.60
2023-04-17T08:04:02.638Z,35.80
2023-04-17T08:09:02.246Z,43.20
2023-04-17T08:14:02.292Z,45.30
2023-04-17T08:19:02.073Z,42.80
2023-04-17T08:24:02.012Z,46.20
2023-04-17T08:29:02.018Z,51.10
2023-04-17T08:34:13.076Z,59.40
2023-04-17T08:39:02.876Z,49.60
2023-04-17T08:44:01.831Z,54.50
2023-04-17T08:49:01.749Z,50.90
2023-04-17T08:54:01.706Z,39.80
2023-04-17T08:59:01.658Z,40.80
2023-04-17T09:04:01.769Z,45.10
2023-04-17T09:09:01.652Z,40.50
2023-04-17T09:14:01.526Z,46.10
2023-04-17T09:19:01.467Z,35.60
2023-04-17T09:24:01.426Z,31.00
2023-04-17T09:29:01.442Z,33.50
2023-04-17T09:34:01.363Z,32.00
2023-04-17T09:39:01.279Z,31.80
2023-04-17T09:44:01.192Z,32.90
2023-04-17T09:49:01.110Z,28.30
2023-04-17T09:54:01.153Z,27.40
2023-04-17T09:59:01.084Z,24.20
2023-04-17T10:04:01.220Z,24.90
2023-04-17T10:09:00.968Z,21.30
2023-04-17T10:14:00.845Z,19.70
2023-04-17T10:19:00.840Z,20.60
2023-04-17T10:24:00.701Z,20.50
2023-04-17T10:29:00.673Z,20.50
2023-04-17T10:34:09.710Z,25.60
2023-04-17T10:39:00.568Z,19.80
2023-04-17T10:44:00.486Z,17.30
2023-04-17T10:49:00.440Z,17.00
2023-04-17T10:54:00.419Z,15.70
2023-04-17T10:59:00.379Z,17.00
2023-04-17T11:04:00.313Z,16.40
2023-04-17T11:09:00.263Z,19.00
2023-04-17T11:14:00.182Z,15.00
2023-04-17T11:19:00.155Z,13.40
2023-04-17T11:24:00.107Z,20.50
2023-04-17T11:29:00.057Z,16.00
2023-04-17T11:34:00.007Z,13.80
2023-04-17T11:38:59.919Z,18.80
2023-04-17T11:43:59.934Z,17.40
2023-04-17T11:48:59.944Z,16.30
2023-04-17T11:53:59.780Z,13.80
2023-04-17T11:58:59.707Z,13.60
2023-04-17T12:03:59.948Z,12.90
2023-04-17T12:08:59.603Z,10.50
2023-04-17T12:13:59.686Z,12.70
2023-04-17T12:18:59.546Z,13.10
2023-04-17T12:23:59.459Z,12.40
2023-04-17T12:28:59.417Z,16.20
2023-04-17T12:33:59.424Z,17.80
2023-04-17T12:38:59.278Z,10.00
2023-04-17T12:43:59.257Z,14.00
2023-04-17T12:48:59.316Z,12.90
2023-04-17T12:53:59.163Z,12.50
2023-04-17T12:59:02.123Z,16.70
2023-04-17T13:03:59.148Z,13.70
2023-04-17T13:08:58.981Z,14.10
2023-04-17T13:13:58.945Z,12.50
2023-04-17T13:18:58.852Z,13.80
2023-04-17T13:23:58.843Z,17.40
2023-04-17T13:28:58.788Z,15.60
2023-04-17T13:33:58.718Z,13.40
2023-04-17T13:38:58.648Z,13.40
2023-04-17T13:43:58.626Z,11.80
2023-04-17T13:48:58.573Z,12.80
2023-04-17T13:53:58.587Z,16.10
2023-04-17T13:58:58.472Z,14.60
2023-04-17T14:03:58.619Z,18.90
2023-04-17T14:08:58.375Z,14.00
2023-04-17T14:13:58.324Z,15.00
2023-04-17T14:19:12.722Z,17.80
2023-04-17T14:23:59.236Z,14.80
2023-04-17T14:28:58.091Z,11.90
2023-04-17T14:33:58.062Z,17.30
2023-04-17T14:38:58.118Z,17.50
2023-04-17T14:43:58.077Z,15.30
2023-04-17T14:48:57.924Z,14.70
2023-04-17T14:53:57.856Z,13.70
2023-04-17T14:58:57.817Z,22.50
2023-04-17T15:03:57.963Z,12.70
2023-04-17T15:08:57.738Z,17.10
2023-04-17T15:13:57.628Z,15.00
2023-04-17T15:18:57.577Z,15.20
2023-04-17T15:23:57.557Z,15.20
2023-04-17T15:28:57.494Z,13.80
2023-04-17T15:33:57.429Z,15.40
2023-04-17T15:38:57.495Z,11.70
2023-04-17T15:43:57.336Z,24.00
2023-04-17T15:49:08.282Z,12.90
2023-04-17T15:53:58.210Z,14.20
2023-04-17T15:58:57.256Z,16.30
2023-04-17T16:03:57.395Z,19.50
2023-04-17T16:08:57.068Z,15.60
2023-04-17T16:13:56.982Z,12.50
2023-04-17T16:18:58.089Z,19.30
2023-04-17T16:23:56.930Z,10.60
2023-04-17T16:28:56.916Z,17.40
2023-04-17T16:34:05.718Z,10.70
2023-04-17T16:38:56.703Z,16.60
2023-04-17T16:43:56.749Z,20.20
2023-04-17T16:48:56.651Z,14.40
2023-04-17T16:53:56.611Z,16.50
2023-04-17T16:58:56.491Z,13.50
2023-04-17T17:03:56.477Z,12.30
2023-04-17T17:08:56.433Z,14.30
2023-04-17T17:13:56.355Z,13.90
2023-04-17T17:18:56.290Z,12.90
2023-04-17T17:23:56.248Z,16.80
2023-04-17T17:28:56.187Z,13.10
2023-04-17T17:33:56.110Z,17.90
2023-04-17T17:38:56.279Z,17.30
2023-04-17T17:43:56.118Z,14.50
2023-04-17T17:48:55.996Z,22.80
2023-04-17T17:53:55.885Z,14.60
2023-04-17T17:58:55.882Z,15.20
2023-04-17T18:03:56.008Z,15.70
2023-04-17T18:08:55.772Z,13.70
2023-04-17T18:13:55.695Z,32.40
2023-04-17T18:18:55.625Z,15.90
2023-04-17T18:23:55.602Z,16.90
2023-04-17T18:28:55.563Z,18.10
2023-04-17T18:33:55.500Z,18.40
2023-04-17T18:38:55.454Z,20.00
2023-04-17T18:43:55.380Z,19.50
2023-04-17T18:48:55.320Z,16.80
2023-04-17T18:53:55.283Z,20.10
2023-04-17T18:58:55.247Z,17.80
2023-04-17T19:03:55.168Z,14.90
2023-04-17T19:08:55.159Z,16.60
2023-04-17T19:13:55.058Z,15.70
2023-04-17T19:18:55.000Z,18.80
2023-04-17T19:23:54.912Z,17.10
2023-04-17T19:28:54.971Z,20.10
2023-04-17T19:33:54.880Z,18.10
2023-04-17T19:38:54.787Z,16.30
2023-04-17T19:43:54.798Z,17.70
2023-04-17T19:48:54.855Z,20.70
2023-04-17T19:53:54.766Z,17.40
2023-04-17T19:58:54.576Z,20.80
2023-04-17T20:03:54.501Z,17.20
2023-04-17T20:08:54.448Z,20.50
2023-04-17T20:13:54.395Z,18.00
2023-04-17T20:18:54.303Z,18.10
2023-04-17T20:23:54.259Z,19.60
2023-04-17T20:28:54.331Z,21.30
2023-04-17T20:33:54.136Z,23.60
2023-04-17T20:38:54.115Z,19.70
2023-04-17T20:43:54.017Z,20.00
2023-04-17T20:48:54.010Z,18.90
2023-04-17T20:53:53.961Z,23.20
2023-04-17T20:58:53.925Z,23.90
2023-04-17T21:03:57.326Z,23.10
2023-04-17T21:08:53.769Z,21.20
2023-04-17T21:13:53.711Z,17.60
2023-04-17T21:18:53.799Z,21.10
2023-04-17T21:23:53.622Z,18.10
2023-04-17T21:28:53.567Z,18.80
2023-04-17T21:33:53.529Z,23.40
2023-04-17T21:38:53.452Z,25.10
2023-04-17T21:43:53.353Z,19.70
2023-04-17T21:48:53.476Z,24.90
2023-04-17T21:53:53.263Z,19.20
2023-04-17T21:58:55.325Z,19.40
2023-04-17T22:03:53.261Z,16.70
2023-04-17T22:08:53.168Z,17.90
2023-04-17T22:13:53.141Z,20.50
2023-04-17T22:18:53.055Z,22.80
2023-04-17T22:23:52.979Z,18.90
2023-04-17T22:28:52.921Z,16.90
2023-04-17T22:35:27.517Z,14.20
2023-04-17T22:40:27.456Z,15.10
2023-04-17T22:45:27.424Z,19.50
2023-04-17T22:50:27.395Z,19.90
2023-04-17T22:55:27.493Z,21.50
2023-04-17T23:00:27.281Z,17.00
2023-04-17T23:05:27.217Z,18.20
2023-04-17T23:10:27.186Z,24.20
2023-04-17T23:15:27.270Z,20.80
2023-04-17T23:20:27.039Z,22.40
2023-04-17T23:25:27.138Z,13.50
2023-04-17T23:30:26.921Z,20.80
2023-04-17T23:35:26.908Z,21.60
2023-04-17T23:40:26.833Z,15.00
2023-04-17T23:45:26.770Z,18.10
2023-04-17T23:50:26.736Z,18.30
2023-04-17T23:55:26.655Z,14.90
